sensor_id;sensor_type;location;lat;lon;timestamp;temperature;humidity
27384;DHT22;14851;51.166;4.760;2023-06-14T00:00:06;19.10;99.90
27384;DHT22;14851;51.166;4.760;2023-06-14T00:02:33;19.10;99.90
27384;DHT22;14851;51.166;4.760;2023-06-14T00:05:01;19.00;99.90
27384;DHT22;14851;51.166;4.760;2023-06-14T00:07:40;19.00;99.90
27384;DHT22;14851;51.166;4.760;2023-06-14T00:10:10;18.90;99.90
27384;DHT22;14851;51.166;4.760;2023-06-14T00:12:37;19.00;99.30
27384;DHT22;14851;51.166;4.760;2023-06-14T00:15:06;19.10;98.00
27384;DHT22;14851;51.166;4.760;2023-06-14T00:17:33;19.00;99.90
27384;DHT22;14851;51.166;4.760;2023-06-14T00:20:00;18.90;99.90
27384;DHT22;14851;51.166;4.760;2023-06-14T00:22:26;18.90;99.90
27384;DHT22;14851;51.166;4.760;2023-06-14T00:24:54;18.80;99.90
27384;DHT22;14851;51.166;4.760;2023-06-14T00:27:23;18.80;99.90
27384;DHT22;14851;51.166;4.760;2023-06-14T00:29:49;18.70;99.90
27384;DHT22;14851;51.166;4.760;2023-06-14T00:32:15;18.70;99.90
27384;DHT22;14851;51.166;4.760;2023-06-14T00:34:44;18.60;99.90
27384;DHT22;14851;51.166;4.760;2023-06-14T00:37:10;18.60;99.90
27384;DHT22;14851;51.166;4.760;2023-06-14T00:39:36;18.60;99.90
27384;DHT22;14851;51.166;4.760;2023-06-14T00:42:06;18.60;99.90
27384;DHT22;14851;51.166;4.760;2023-06-14T00:44:32;18.60;99.80
27384;DHT22;14851;51.166;4.760;2023-06-14T00:46:58;18.70;98.70
27384;DHT22;14851;51.166;4.760;2023-06-14T00:49:24;18.70;98.90
27384;DHT22;14851;51.166;4.760;2023-06-14T00:51:50;18.80;99.40
27384;DHT22;14851;51.166;4.760;2023-06-14T00:54:23;18.70;99.90
27384;DHT22;14851;51.166;4.760;2023-06-14T00:56:49;18.60;99.90
27384;DHT22;14851;51.166;4.760;2023-06-14T00:59:17;18.60;99.40
27384;DHT22;14851;51.166;4.760;2023-06-14T01:01:43;18.60;98.90
27384;DHT22;14851;51.166;4.760;2023-06-14T01:04:11;18.60;99.10
27384;DHT22;14851;51.166;4.760;2023-06-14T01:06:49;18.50;99.90
27384;DHT22;14851;51.166;4.760;2023-06-14T01:12:10;18.40;99.90
27384;DHT22;14851;51.166;4.760;2023-06-14T01:14:39;18.40;99.90
27384;DHT22;14851;51.166;4.760;2023-06-14T01:17:10;18.30;99.90
27384;DHT22;14851;51.166;4.760;2023-06-14T01:19:44;18.30;99.90
27384;DHT22;14851;51.166;4.760;2023-06-14T01:22:16;18.20;99.90
27384;DHT22;14851;51.166;4.760;2023-06-14T01:24:45;18.20;99.90
27384;DHT22;14851;51.166;4.760;2023-06-14T01:27:11;18.20;99.90
27384;DHT22;14851;51.166;4.760;2023-06-14T01:29:41;18.20;99.90
27384;DHT22;14851;51.166;4.760;2023-06-14T01:32:15;18.20;99.70
27384;DHT22;14851;51.166;4.760;2023-06-14T01:34:41;18.30;99.20
27384;DHT22;14851;51.166;4.760;2023-06-14T01:37:08;18.30;98.60
27384;DHT22;14851;51.166;4.760;2023-06-14T01:39:35;18.30;97.90
27384;DHT22;14851;51.166;4.760;2023-06-14T01:42:04;18.40;98.20
27384;DHT22;14851;51.166;4.760;2023-06-14T01:44:32;18.40;97.70
27384;DHT22;14851;51.166;4.760;2023-06-14T01:47:01;18.40;97.50
27384;DHT22;14851;51.166;4.760;2023-06-14T01:49:27;18.40;97.30
27384;DHT22;14851;51.166;4.760;2023-06-14T01:51:53;18.50;97.00
27384;DHT22;14851;51.166;4.760;2023-06-14T01:54:20;18.40;96.90
27384;DHT22;14851;51.166;4.760;2023-06-14T01:56:48;18.40;96.90
27384;DHT22;14851;51.166;4.760;2023-06-14T01:59:19;18.40;96.70
27384;DHT22;14851;51.166;4.760;2023-06-14T02:01:48;18.40;96.50
27384;DHT22;14851;51.166;4.760;2023-06-14T02:04:14;18.40;96.90
27384;DHT22;14851;51.166;4.760;2023-06-14T02:06:42;18.40;96.60
27384;DHT22;14851;51.166;4.760;2023-06-14T02:09:08;18.40;96.30
27384;DHT22;14851;51.166;4.760;2023-06-14T02:11:34;18.40;96.30
27384;DHT22;14851;51.166;4.760;2023-06-14T02:14:00;18.40;96.40
27384;DHT22;14851;51.166;4.760;2023-06-14T02:16:27;18.30;96.60
27384;DHT22;14851;51.166;4.760;2023-06-14T02:18:58;18.30;96.60
27384;DHT22;14851;51.166;4.760;2023-06-14T02:21:24;18.30;96.60
27384;DHT22;14851;51.166;4.760;2023-06-14T02:23:49;18.40;96.80
27384;DHT22;14851;51.166;4.760;2023-06-14T02:26:15;18.40;97.40
27384;DHT22;14851;51.166;4.760;2023-06-14T02:28:44;18.40;97.90
27384;DHT22;14851;51.166;4.760;2023-06-14T02:31:09;18.40;97.40
27384;DHT22;14851;51.166;4.760;2023-06-14T02:33:36;18.30;97.30
27384;DHT22;14851;51.166;4.760;2023-06-14T02:36:02;18.20;97.60
27384;DHT22;14851;51.166;4.760;2023-06-14T02:38:29;18.20;98.20
27384;DHT22;14851;51.166;4.760;2023-06-14T02:40:55;18.20;97.50
27384;DHT22;14851;51.166;4.760;2023-06-14T02:43:25;18.20;97.20
27384;DHT22;14851;51.166;4.760;2023-06-14T02:45:57;18.10;97.30
27384;DHT22;14851;51.166;4.760;2023-06-14T02:48:23;18.10;97.60
27384;DHT22;14851;51.166;4.760;2023-06-14T02:50:49;18.10;97.50
27384;DHT22;14851;51.166;4.760;2023-06-14T02:53:16;18.00;98.10
27384;DHT22;14851;51.166;4.760;2023-06-14T02:55:43;17.90;98.80
27384;DHT22;14851;51.166;4.760;2023-06-14T02:58:09;17.80;98.30
27384;DHT22;14851;51.166;4.760;2023-06-14T03:00:36;17.70;98.10
27384;DHT22;14851;51.166;4.760;2023-06-14T03:03:02;17.60;98.20
27384;DHT22;14851;51.166;4.760;2023-06-14T03:05:28;17.60;98.50
27384;DHT22;14851;51.166;4.760;2023-06-14T03:07:54;17.60;98.70
27384;DHT22;14851;51.166;4.760;2023-06-14T03:10:20;17.50;99.70
27384;DHT22;14851;51.166;4.760;2023-06-14T03:12:48;17.50;99.80
27384;DHT22;14851;51.166;4.760;2023-06-14T03:15:15;17.50;99.10
27384;DHT22;14851;51.166;4.760;2023-06-14T03:17:47;17.40;99.60
27384;DHT22;14851;51.166;4.760;2023-06-14T03:20:17;17.40;99.00
27384;DHT22;14851;51.166;4.760;2023-06-14T03:22:46;17.40;98.90
27384;DHT22;14851;51.166;4.760;2023-06-14T03:25:14;17.40;98.90
27384;DHT22;14851;51.166;4.760;2023-06-14T03:27:43;17.40;98.70
27384;DHT22;14851;51.166;4.760;2023-06-14T03:30:11;17.40;99.10
27384;DHT22;14851;51.166;4.760;2023-06-14T03:32:38;17.30;99.40
27384;DHT22;14851;51.166;4.760;2023-06-14T03:35:06;17.30;99.60
27384;DHT22;14851;51.166;4.760;2023-06-14T03:37:32;17.30;98.70
27384;DHT22;14851;51.166;4.760;2023-06-14T03:39:59;17.30;98.80
27384;DHT22;14851;51.166;4.760;2023-06-14T03:42:35;17.30;98.70
27384;DHT22;14851;51.166;4.760;2023-06-14T03:45:03;17.30;98.50
27384;DHT22;14851;51.166;4.760;2023-06-14T03:47:29;17.30;98.50
27384;DHT22;14851;51.166;4.760;2023-06-14T03:49:55;17.30;98.70
27384;DHT22;14851;51.166;4.760;2023-06-14T03:52:21;17.30;98.60
27384;DHT22;14851;51.166;4.760;2023-06-14T03:54:50;17.30;98.60
27384;DHT22;14851;51.166;4.760;2023-06-14T03:57:18;17.30;98.80
27384;DHT22;14851;51.166;4.760;2023-06-14T03:59:44;17.30;98.80
27384;DHT22;14851;51.166;4.760;2023-06-14T04:02:14;17.30;98.30
27384;DHT22;14851;51.166;4.760;2023-06-14T04:04:44;17.30;98.20
27384;DHT22;14851;51.166;4.760;2023-06-14T04:07:12;17.30;98.40
27384;DHT22;14851;51.166;4.760;2023-06-14T04:09:39;17.30;98.20
27384;DHT22;14851;51.166;4.760;2023-06-14T04:12:08;17.30;98.60
27384;DHT22;14851;51.166;4.760;2023-06-14T04:14:39;17.20;98.10
27384;DHT22;14851;51.166;4.760;2023-06-14T04:17:09;17.20;98.40
27384;DHT22;14851;51.166;4.760;2023-06-14T04:19:37;17.20;98.80
27384;DHT22;14851;51.166;4.760;2023-06-14T04:22:04;17.20;98.60
27384;DHT22;14851;51.166;4.760;2023-06-14T04:24:34;17.30;99.00
27384;DHT22;14851;51.166;4.760;2023-06-14T04:27:01;17.30;98.80
27384;DHT22;14851;51.166;4.760;2023-06-14T04:29:30;17.20;99.20
27384;DHT22;14851;51.166;4.760;2023-06-14T04:32:02;17.20;99.00
27384;DHT22;14851;51.166;4.760;2023-06-14T04:34:31;17.30;99.40
27384;DHT22;14851;51.166;4.760;2023-06-14T04:37:03;17.30;99.30
27384;DHT22;14851;51.166;4.760;2023-06-14T04:39:39;17.30;99.70
27384;DHT22;14851;51.166;4.760;2023-06-14T04:42:06;17.30;99.90
27384;DHT22;14851;51.166;4.760;2023-06-14T04:44:33;17.30;99.90
27384;DHT22;14851;51.166;4.760;2023-06-14T04:47:02;17.30;99.90
27384;DHT22;14851;51.166;4.760;2023-06-14T04:49:32;17.30;99.90
27384;DHT22;14851;51.166;4.760;2023-06-14T04:52:04;17.30;99.90
27384;DHT22;14851;51.166;4.760;2023-06-14T04:54:39;17.20;99.90
27384;DHT22;14851;51.166;4.760;2023-06-14T04:57:10;17.20;99.90
27384;DHT22;14851;51.166;4.760;2023-06-14T04:59:45;17.30;99.90
27384;DHT22;14851;51.166;4.760;2023-06-14T05:02:15;17.30;99.90
27384;DHT22;14851;51.166;4.760;2023-06-14T05:04:45;17.30;99.90
27384;DHT22;14851;51.166;4.760;2023-06-14T05:07:13;17.30;99.90
27384;DHT22;14851;51.166;4.760;2023-06-14T05:09:41;17.40;99.90
27384;DHT22;14851;51.166;4.760;2023-06-14T05:12:07;17.40;99.90
27384;DHT22;14851;51.166;4.760;2023-06-14T05:14:34;17.40;99.90
27384;DHT22;14851;51.166;4.760;2023-06-14T05:17:00;17.50;99.90
27384;DHT22;14851;51.166;4.760;2023-06-14T05:19:28;17.50;99.90
27384;DHT22;14851;51.166;4.760;2023-06-14T05:21:54;17.50;99.90
27384;DHT22;14851;51.166;4.760;2023-06-14T05:24:20;17.50;99.90
27384;DHT22;14851;51.166;4.760;2023-06-14T05:26:49;17.50;99.90
27384;DHT22;14851;51.166;4.760;2023-06-14T05:29:22;17.60;99.90
27384;DHT22;14851;51.166;4.760;2023-06-14T05:31:49;17.60;99.90
27384;DHT22;14851;51.166;4.760;2023-06-14T05:34:15;17.60;99.90
27384;DHT22;14851;51.166;4.760;2023-06-14T05:36:41;17.60;99.90
27384;DHT22;14851;51.166;4.760;2023-06-14T05:39:12;17.60;99.90
27384;DHT22;14851;51.166;4.760;2023-06-14T05:41:40;17.60;99.90
27384;DHT22;14851;51.166;4.760;2023-06-14T05:44:06;17.60;99.90
27384;DHT22;14851;51.166;4.760;2023-06-14T05:46:35;17.70;99.90
27384;DHT22;14851;51.166;4.760;2023-06-14T05:49:03;17.70;99.90
27384;DHT22;14851;51.166;4.760;2023-06-14T05:51:29;17.70;99.90
27384;DHT22;14851;51.166;4.760;2023-06-14T05:53:58;17.80;99.90
27384;DHT22;14851;51.166;4.760;2023-06-14T05:56:24;17.80;99.90
27384;DHT22;14851;51.166;4.760;2023-06-14T05:58:52;17.80;99.90
27384;DHT22;14851;51.166;4.760;2023-06-14T06:01:18;17.80;99.90
27384;DHT22;14851;51.166;4.760;2023-06-14T06:03:46;17.90;99.90
27384;DHT22;14851;51.166;4.760;2023-06-14T06:06:13;17.90;99.90
27384;DHT22;14851;51.166;4.760;2023-06-14T06:08:39;17.90;99.90
27384;DHT22;14851;51.166;4.760;2023-06-14T06:11:08;17.90;99.90
27384;DHT22;14851;51.166;4.760;2023-06-14T06:13:34;18.00;99.90
27384;DHT22;14851;51.166;4.760;2023-06-14T06:16:01;18.00;99.90
27384;DHT22;14851;51.166;4.760;2023-06-14T06:18:27;18.00;99.90
27384;DHT22;14851;51.166;4.760;2023-06-14T06:20:53;18.00;99.90
27384;DHT22;14851;51.166;4.760;2023-06-14T06:23:19;18.10;99.90
27384;DHT22;14851;51.166;4.760;2023-06-14T06:25:47;18.10;99.90
27384;DHT22;14851;51.166;4.760;2023-06-14T06:28:13;18.10;99.90
27384;DHT22;14851;51.166;4.760;2023-06-14T06:30:39;18.20;99.90
27384;DHT22;14851;51.166;4.760;2023-06-14T06:33:05;18.20;99.90
27384;DHT22;14851;51.166;4.760;2023-06-14T06:35:31;18.20;99.90
27384;DHT22;14851;51.166;4.760;2023-06-14T06:38:01;18.30;99.90
27384;DHT22;14851;51.166;4.760;2023-06-14T06:40:29;18.30;99.90
27384;DHT22;14851;51.166;4.760;2023-06-14T06:42:55;18.30;99.90
27384;DHT22;14851;51.166;4.760;2023-06-14T06:45:21;18.40;99.90
27384;DHT22;14851;51.166;4.760;2023-06-14T06:47:49;18.40;99.90
27384;DHT22;14851;51.166;4.760;2023-06-14T06:50:16;18.40;99.90
27384;DHT22;14851;51.166;4.760;2023-06-14T06:52:44;18.50;99.90
27384;DHT22;14851;51.166;4.760;2023-06-14T06:55:13;18.50;99.90
27384;DHT22;14851;51.166;4.760;2023-06-14T06:57:40;18.50;99.90
27384;DHT22;14851;51.166;4.760;2023-06-14T07:00:07;18.50;99.90
27384;DHT22;14851;51.166;4.760;2023-06-14T07:02:36;18.60;99.90
27384;DHT22;14851;51.166;4.760;2023-06-14T07:05:02;18.70;99.90
27384;DHT22;14851;51.166;4.760;2023-06-14T07:07:28;18.70;99.90
27384;DHT22;14851;51.166;4.760;2023-06-14T07:09:54;18.70;99.90
27384;DHT22;14851;51.166;4.760;2023-06-14T07:12:20;18.80;99.90
27384;DHT22;14851;51.166;4.760;2023-06-14T07:14:46;18.80;99.90
27384;DHT22;14851;51.166;4.760;2023-06-14T07:17:14;18.80;99.90
27384;DHT22;14851;51.166;4.760;2023-06-14T07:19:42;18.90;99.90
27384;DHT22;14851;51.166;4.760;2023-06-14T07:22:10;19.00;99.90
27384;DHT22;14851;51.166;4.760;2023-06-14T07:24:36;19.00;99.90
27384;DHT22;14851;51.166;4.760;2023-06-14T07:27:02;19.00;99.90
27384;DHT22;14851;51.166;4.760;2023-06-14T07:29:29;19.10;99.90
27384;DHT22;14851;51.166;4.760;2023-06-14T07:31:55;19.10;99.90
27384;DHT22;14851;51.166;4.760;2023-06-14T07:34:21;19.10;99.90
27384;DHT22;14851;51.166;4.760;2023-06-14T07:36:47;19.20;99.90
27384;DHT22;14851;51.166;4.760;2023-06-14T07:39:13;19.30;99.90
27384;DHT22;14851;51.166;4.760;2023-06-14T07:41:39;19.30;99.90
27384;DHT22;14851;51.166;4.760;2023-06-14T07:44:07;19.30;99.90
27384;DHT22;14851;51.166;4.760;2023-06-14T07:46:33;19.40;99.90
27384;DHT22;14851;51.166;4.760;2023-06-14T07:49:00;19.40;99.60
27384;DHT22;14851;51.166;4.760;2023-06-14T07:51:30;19.50;99.80
27384;DHT22;14851;51.166;4.760;2023-06-14T07:53:58;19.50;99.90
27384;DHT22;14851;51.166;4.760;2023-06-14T07:56:28;19.60;99.60
27384;DHT22;14851;51.166;4.760;2023-06-14T07:58:54;19.60;99.10
27384;DHT22;14851;51.166;4.760;2023-06-14T08:01:20;19.60;98.60
27384;DHT22;14851;51.166;4.760;2023-06-14T08:03:46;19.70;98.90
27384;DHT22;14851;51.166;4.760;2023-06-14T08:06:12;19.70;98.50
27384;DHT22;14851;51.166;4.760;2023-06-14T08:08:38;19.80;98.80
27384;DHT22;14851;51.166;4.760;2023-06-14T08:11:04;19.90;99.10
27384;DHT22;14851;51.166;4.760;2023-06-14T08:13:33;19.90;98.80
27384;DHT22;14851;51.166;4.760;2023-06-14T08:16:02;19.90;98.40
27384;DHT22;14851;51.166;4.760;2023-06-14T08:18:30;20.00;99.10
27384;DHT22;14851;51.166;4.760;2023-06-14T08:20:56;20.00;98.80
27384;DHT22;14851;51.166;4.760;2023-06-14T08:23:24;20.10;98.50
27384;DHT22;14851;51.166;4.760;2023-06-14T08:25:52;20.10;98.20
27384;DHT22;14851;51.166;4.760;2023-06-14T08:28:18;20.20;98.00
27384;DHT22;14851;51.166;4.760;2023-06-14T08:30:46;20.20;97.60
27384;DHT22;14851;51.166;4.760;2023-06-14T08:33:12;20.20;97.70
27384;DHT22;14851;51.166;4.760;2023-06-14T08:35:39;20.30;96.60
27384;DHT22;14851;51.166;4.760;2023-06-14T08:38:05;20.30;97.00
27384;DHT22;14851;51.166;4.760;2023-06-14T08:40:31;20.40;97.10
27384;DHT22;14851;51.166;4.760;2023-06-14T08:42:59;20.40;96.90
27384;DHT22;14851;51.166;4.760;2023-06-14T08:45:26;20.50;96.50
27384;DHT22;14851;51.166;4.760;2023-06-14T08:47:52;20.50;96.60
27384;DHT22;14851;51.166;4.760;2023-06-14T08:50:23;20.50;96.90
27384;DHT22;14851;51.166;4.760;2023-06-14T08:52:57;20.60;96.40
27384;DHT22;14851;51.166;4.760;2023-06-14T08:55:27;20.70;96.60
27384;DHT22;14851;51.166;4.760;2023-06-14T08:57:57;20.70;96.30
27384;DHT22;14851;51.166;4.760;2023-06-14T09:00:24;20.70;96.50
27384;DHT22;14851;51.166;4.760;2023-06-14T09:02:51;20.80;95.50
27384;DHT22;14851;51.166;4.760;2023-06-14T09:05:23;20.90;95.60
27384;DHT22;14851;51.166;4.760;2023-06-14T09:07:53;21.00;95.00
27384;DHT22;14851;51.166;4.760;2023-06-14T09:10:27;21.00;95.40
27384;DHT22;14851;51.166;4.760;2023-06-14T09:12:55;21.00;95.30
27384;DHT22;14851;51.166;4.760;2023-06-14T09:15:21;21.00;94.70
27384;DHT22;14851;51.166;4.760;2023-06-14T09:17:47;21.10;93.80
27384;DHT22;14851;51.166;4.760;2023-06-14T09:20:13;21.10;93.00
27384;DHT22;14851;51.166;4.760;2023-06-14T09:22:44;21.20;91.90
27384;DHT22;14851;51.166;4.760;2023-06-14T09:25:10;21.30;91.80
27384;DHT22;14851;51.166;4.760;2023-06-14T09:27:38;21.30;92.00
27384;DHT22;14851;51.166;4.760;2023-06-14T09:30:11;21.30;91.40
27384;DHT22;14851;51.166;4.760;2023-06-14T09:32:43;21.40;91.60
27384;DHT22;14851;51.166;4.760;2023-06-14T09:35:09;21.50;90.90
27384;DHT22;14851;51.166;4.760;2023-06-14T09:37:36;21.50;90.80
27384;DHT22;14851;51.166;4.760;2023-06-14T09:40:08;21.50;91.40
27384;DHT22;14851;51.166;4.760;2023-06-14T09:42:40;21.60;92.30
27384;DHT22;14851;51.166;4.760;2023-06-14T09:45:10;21.60;91.40
27384;DHT22;14851;51.166;4.760;2023-06-14T09:47:39;21.70;91.00
27384;DHT22;14851;51.166;4.760;2023-06-14T09:50:05;21.70;90.90
27384;DHT22;14851;51.166;4.760;2023-06-14T09:52:31;21.80;90.90
27384;DHT22;14851;51.166;4.760;2023-06-14T09:54:58;21.80;91.80
27384;DHT22;14851;51.166;4.760;2023-06-14T09:57:25;21.80;91.10
27384;DHT22;14851;51.166;4.760;2023-06-14T09:59:56;21.80;90.60
27384;DHT22;14851;51.166;4.760;2023-06-14T10:02:38;21.90;91.10
27384;DHT22;14851;51.166;4.760;2023-06-14T10:05:12;22.10;90.20
27384;DHT22;14851;51.166;4.760;2023-06-14T10:08:05;22.10;90.60
27384;DHT22;14851;51.166;4.760;2023-06-14T10:10:34;22.20;90.30
27384;DHT22;14851;51.166;4.760;2023-06-14T10:13:01;22.20;90.00
27384;DHT22;14851;51.166;4.760;2023-06-14T10:15:37;22.20;90.40
27384;DHT22;14851;51.166;4.760;2023-06-14T10:18:19;22.30;85.70
27384;DHT22;14851;51.166;4.760;2023-06-14T10:20:55;22.30;85.60
27384;DHT22;14851;51.166;4.760;2023-06-14T10:23:26;22.30;85.00
27384;DHT22;14851;51.166;4.760;2023-06-14T10:25:57;22.40;87.30
27384;DHT22;14851;51.166;4.760;2023-06-14T10:28:23;22.40;86.70
27384;DHT22;14851;51.166;4.760;2023-06-14T10:31:03;22.40;85.50
27384;DHT22;14851;51.166;4.760;2023-06-14T10:36:26;22.60;86.40
27384;DHT22;14851;51.166;4.760;2023-06-14T10:41:35;22.80;84.90
27384;DHT22;14851;51.166;4.760;2023-06-14T10:49:20;23.00;83.70
27384;DHT22;14851;51.166;4.760;2023-06-14T10:52:03;23.10;83.20
27384;DHT22;14851;51.166;4.760;2023-06-14T10:54:33;23.10;84.10
27384;DHT22;14851;51.166;4.760;2023-06-14T10:56:59;23.10;84.00
27384;DHT22;14851;51.166;4.760;2023-06-14T10:59:27;23.20;85.10
27384;DHT22;14851;51.166;4.760;2023-06-14T11:02:27;23.30;85.50
27384;DHT22;14851;51.166;4.760;2023-06-14T11:05:04;23.30;83.80
27384;DHT22;14851;51.166;4.760;2023-06-14T11:10:41;23.30;81.80
27384;DHT22;14851;51.166;4.760;2023-06-14T11:13:07;23.30;83.10
27384;DHT22;14851;51.166;4.760;2023-06-14T11:15:38;23.40;83.00
27384;DHT22;14851;51.166;4.760;2023-06-14T11:18:05;23.40;82.20
27384;DHT22;14851;51.166;4.760;2023-06-14T11:20:33;23.40;81.50
27384;DHT22;14851;51.166;4.760;2023-06-14T11:23:06;23.40;81.70
27384;DHT22;14851;51.166;4.760;2023-06-14T11:25:32;23.40;80.80
27384;DHT22;14851;51.166;4.760;2023-06-14T11:27:58;23.40;79.60
27384;DHT22;14851;51.166;4.760;2023-06-14T11:30:27;23.50;81.20
27384;DHT22;14851;51.166;4.760;2023-06-14T11:32:54;23.50;80.30
27384;DHT22;14851;51.166;4.760;2023-06-14T11:35:24;23.60;80.20
27384;DHT22;14851;51.166;4.760;2023-06-14T11:37:57;23.60;79.60
27384;DHT22;14851;51.166;4.760;2023-06-14T11:40:25;23.60;80.80
27384;DHT22;14851;51.166;4.760;2023-06-14T11:42:59;23.60;80.60
27384;DHT22;14851;51.166;4.760;2023-06-14T11:45:29;23.60;80.90
27384;DHT22;14851;51.166;4.760;2023-06-14T11:48:01;23.70;79.20
27384;DHT22;14851;51.166;4.760;2023-06-14T11:50:32;23.80;78.90
27384;DHT22;14851;51.166;4.760;2023-06-14T11:53:03;23.80;78.10
27384;DHT22;14851;51.166;4.760;2023-06-14T11:55:40;23.90;77.30
27384;DHT22;14851;51.166;4.760;2023-06-14T11:58:06;23.90;76.30
27384;DHT22;14851;51.166;4.760;2023-06-14T12:00:34;23.90;76.90
27384;DHT22;14851;51.166;4.760;2023-06-14T12:03:06;24.00;75.20
27384;DHT22;14851;51.166;4.760;2023-06-14T12:05:35;24.00;75.80
27384;DHT22;14851;51.166;4.760;2023-06-14T12:08:06;24.00;74.20
27384;DHT22;14851;51.166;4.760;2023-06-14T12:10:43;24.00;77.00
27384;DHT22;14851;51.166;4.760;2023-06-14T12:13:09;24.10;75.50
27384;DHT22;14851;51.166;4.760;2023-06-14T12:15:38;24.10;74.10
27384;DHT22;14851;51.166;4.760;2023-06-14T12:18:06;24.10;75.40
27384;DHT22;14851;51.166;4.760;2023-06-14T12:20:34;24.10;73.70
27384;DHT22;14851;51.166;4.760;2023-06-14T12:23:03;24.20;72.20
27384;DHT22;14851;51.166;4.760;2023-06-14T12:25:34;24.20;73.90
27384;DHT22;14851;51.166;4.760;2023-06-14T12:28:10;24.20;73.50
27384;DHT22;14851;51.166;4.760;2023-06-14T12:30:38;24.20;73.00
27384;DHT22;14851;51.166;4.760;2023-06-14T12:33:07;24.30;70.00
27384;DHT22;14851;51.166;4.760;2023-06-14T12:35:33;24.30;72.00
27384;DHT22;14851;51.166;4.760;2023-06-14T12:37:59;24.30;69.80
27384;DHT22;14851;51.166;4.760;2023-06-14T12:40:25;24.40;70.10
27384;DHT22;14851;51.166;4.760;2023-06-14T12:42:54;24.40;67.10
27384;DHT22;14851;51.166;4.760;2023-06-14T12:45:20;24.50;66.40
27384;DHT22;14851;51.166;4.760;2023-06-14T12:47:45;24.50;68.70
27384;DHT22;14851;51.166;4.760;2023-06-14T12:50:12;24.60;67.00
27384;DHT22;14851;51.166;4.760;2023-06-14T12:52:40;24.60;65.30
27384;DHT22;14851;51.166;4.760;2023-06-14T12:55:06;24.70;67.20
27384;DHT22;14851;51.166;4.760;2023-06-14T12:57:32;24.70;66.70
27384;DHT22;14851;51.166;4.760;2023-06-14T13:00:00;24.70;66.80
27384;DHT22;14851;51.166;4.760;2023-06-14T13:02:26;24.70;67.30
27384;DHT22;14851;51.166;4.760;2023-06-14T13:04:52;24.70;68.20
27384;DHT22;14851;51.166;4.760;2023-06-14T13:07:21;24.70;66.70
27384;DHT22;14851;51.166;4.760;2023-06-14T13:09:47;24.70;67.50
27384;DHT22;14851;51.166;4.760;2023-06-14T13:12:15;24.80;69.20
27384;DHT22;14851;51.166;4.760;2023-06-14T13:14:41;24.80;70.30
27384;DHT22;14851;51.166;4.760;2023-06-14T13:17:10;24.80;66.90
27384;DHT22;14851;51.166;4.760;2023-06-14T13:19:37;24.80;67.50
27384;DHT22;14851;51.166;4.760;2023-06-14T13:22:03;24.90;67.20
27384;DHT22;14851;51.166;4.760;2023-06-14T13:24:30;25.00;66.50
27384;DHT22;14851;51.166;4.760;2023-06-14T13:26:58;25.00;65.30
27384;DHT22;14851;51.166;4.760;2023-06-14T13:29:24;25.10;66.10
27384;DHT22;14851;51.166;4.760;2023-06-14T13:31:51;25.10;64.90
27384;DHT22;14851;51.166;4.760;2023-06-14T13:34:18;25.10;65.60
27384;DHT22;14851;51.166;4.760;2023-06-14T13:36:46;25.10;64.70
27384;DHT22;14851;51.166;4.760;2023-06-14T13:39:16;25.10;65.90
27384;DHT22;14851;51.166;4.760;2023-06-14T13:41:45;25.10;67.90
27384;DHT22;14851;51.166;4.760;2023-06-14T13:44:10;25.20;66.40
27384;DHT22;14851;51.166;4.760;2023-06-14T13:46:40;25.20;65.00
27384;DHT22;14851;51.166;4.760;2023-06-14T13:49:08;25.30;67.10
27384;DHT22;14851;51.166;4.760;2023-06-14T13:51:34;25.30;66.20
27384;DHT22;14851;51.166;4.760;2023-06-14T13:54:02;25.30;66.00
27384;DHT22;14851;51.166;4.760;2023-06-14T13:56:28;25.40;65.80
27384;DHT22;14851;51.166;4.760;2023-06-14T13:58:56;25.40;66.50
27384;DHT22;14851;51.166;4.760;2023-06-14T14:01:22;25.40;64.80
27384;DHT22;14851;51.166;4.760;2023-06-14T14:03:49;25.50;64.60
27384;DHT22;14851;51.166;4.760;2023-06-14T14:06:15;25.50;65.40
27384;DHT22;14851;51.166;4.760;2023-06-14T14:08:43;25.60;63.40
27384;DHT22;14851;51.166;4.760;2023-06-14T14:11:11;25.60;64.70
27384;DHT22;14851;51.166;4.760;2023-06-14T14:13:38;25.70;64.70
27384;DHT22;14851;51.166;4.760;2023-06-14T14:16:05;25.70;66.40
27384;DHT22;14851;51.166;4.760;2023-06-14T14:18:34;25.70;65.40
27384;DHT22;14851;51.166;4.760;2023-06-14T14:21:00;25.80;66.20
27384;DHT22;14851;51.166;4.760;2023-06-14T14:23:31;25.90;64.40
27384;DHT22;14851;51.166;4.760;2023-06-14T14:25:57;25.90;65.20
27384;DHT22;14851;51.166;4.760;2023-06-14T14:28:23;26.00;66.10
27384;DHT22;14851;51.166;4.760;2023-06-14T14:30:53;26.00;67.30
27384;DHT22;14851;51.166;4.760;2023-06-14T14:33:19;26.00;66.80
27384;DHT22;14851;51.166;4.760;2023-06-14T14:35:45;26.10;66.80
27384;DHT22;14851;51.166;4.760;2023-06-14T14:38:13;26.10;67.70
27384;DHT22;14851;51.166;4.760;2023-06-14T14:40:39;26.20;64.10
27384;DHT22;14851;51.166;4.760;2023-06-14T14:43:08;26.30;65.10
27384;DHT22;14851;51.166;4.760;2023-06-14T14:45:39;26.40;66.50
27384;DHT22;14851;51.166;4.760;2023-06-14T14:48:05;26.50;63.90
27384;DHT22;14851;51.166;4.760;2023-06-14T14:50:31;26.60;63.80
27384;DHT22;14851;51.166;4.760;2023-06-14T14:53:00;26.70;62.90
27384;DHT22;14851;51.166;4.760;2023-06-14T14:55:26;26.80;64.30
27384;DHT22;14851;51.166;4.760;2023-06-14T14:57:54;26.90;64.70
27384;DHT22;14851;51.166;4.760;2023-06-14T15:00:21;27.10;64.50
27384;DHT22;14851;51.166;4.760;2023-06-14T15:02:52;27.20;63.10
27384;DHT22;14851;51.166;4.760;2023-06-14T15:05:18;27.30;65.80
27384;DHT22;14851;51.166;4.760;2023-06-14T15:07:45;27.40;64.20
27384;DHT22;14851;51.166;4.760;2023-06-14T15:10:11;27.50;63.80
27384;DHT22;14851;51.166;4.760;2023-06-14T15:12:40;27.70;62.60
27384;DHT22;14851;51.166;4.760;2023-06-14T15:15:09;27.70;62.90
27384;DHT22;14851;51.166;4.760;2023-06-14T15:17:35;27.80;62.10
27384;DHT22;14851;51.166;4.760;2023-06-14T15:20:02;27.80;61.90
27384;DHT22;14851;51.166;4.760;2023-06-14T15:22:28;27.80;62.50
27384;DHT22;14851;51.166;4.760;2023-06-14T15:24:54;27.80;61.90
27384;DHT22;14851;51.166;4.760;2023-06-14T15:27:20;27.70;61.90
27384;DHT22;14851;51.166;4.760;2023-06-14T15:30:02;27.70;60.50
27384;DHT22;14851;51.166;4.760;2023-06-14T15:32:29;27.60;61.00
27384;DHT22;14851;51.166;4.760;2023-06-14T15:34:54;27.60;61.70
27384;DHT22;14851;51.166;4.760;2023-06-14T15:37:20;27.60;60.80
27384;DHT22;14851;51.166;4.760;2023-06-14T15:39:55;27.50;60.60
27384;DHT22;14851;51.166;4.760;2023-06-14T15:42:21;27.50;61.90
27384;DHT22;14851;51.166;4.760;2023-06-14T15:44:47;27.40;60.90
27384;DHT22;14851;51.166;4.760;2023-06-14T15:47:24;27.40;60.10
27384;DHT22;14851;51.166;4.760;2023-06-14T15:53:33;27.20;60.20
27384;DHT22;14851;51.166;4.760;2023-06-14T15:56:09;27.20;60.30